»·PEaware :: HAL8833 PHNY-PHMK

HAL8833 :: PHNY-PHMK

FLIGHT INFORMATION

Flight Status: Arrived
Operator:
Hawaiian Airlines
More flights by this operator :: More flights under this callsign
Pilot: Cooper L. (8467)
Aircraft: CESSNA 208 CARAVAN
(C208)
More flights by this aircraft type
Origin: PHNY Lanai City
United States
Destination: PHMK Molokai
United States
More flights between these airports :: More routes between these airports
Route: LNY V2 KOLTE
File this flight plan on PilotEdge
Remarks:
Altitude:
(Current/Filed)
4,500ft
Speed:
(Current/Filed)
140kts
Departed: 19-Dec-15 12:34 PM
Arrived: 19-Dec-15 01:01 PM
Distance/Time
Traveled:
32nm/0:27
Distance/Time
To Go:
Arrived

Flight Plot

Page will automatically refresh every two minutes.


Map Options




Map Legend


Flown Route
Filed Route
Departure Airport
Arrival Airport
Navaid (VOR, NDB)
Fix

Horizontal Profiles

Position Reports

Time Latitude Longitude Heading Altitude Ground
Speed
19-Dec-15 12:21 20.790045 -156.949747 18 1314ft 0kts
19-Dec-15 12:22 20.790045 -156.949747 18 1314ft 0kts
19-Dec-15 12:23 20.790045 -156.949747 18 1314ft 0kts
19-Dec-15 12:24 20.790045 -156.949747 18 1314ft 0kts
19-Dec-15 12:25 20.790045 -156.949747 18 1314ft 0kts
19-Dec-15 12:26 20.790045 -156.949747 18 1314ft 0kts
19-Dec-15 12:27 20.790045 -156.949747 18 1314ft 0kts
19-Dec-15 12:28 20.790067 -156.949730 40 1314ft 4kts
19-Dec-15 12:29 20.789944 -156.947243 44 1313ft 16kts
19-Dec-15 12:30 20.789332 -156.947696 220 1313ft 54kts
19-Dec-15 12:31 20.770908 -156.968284 227 1955ft 118kts
19-Dec-15 12:32 20.745396 -156.998590 230 2479ft 146kts
19-Dec-15 12:33 20.720446 -157.028142 208 3502ft 125kts
19-Dec-15 12:34 20.699253 -157.015147 75 4487ft 98kts
19-Dec-15 12:35 20.723802 -156.992202 28 4501ft 138kts
19-Dec-15 12:36 20.757348 -156.977008 24 4492ft 143kts
19-Dec-15 12:37 20.785312 -157.004743 306 4498ft 153kts
19-Dec-15 12:38 20.805335 -157.040348 307 4498ft 135kts
19-Dec-15 12:39 20.824024 -157.073138 307 4498ft 132kts
19-Dec-15 12:40 20.843026 -157.106536 308 4495ft 131kts
19-Dec-15 12:41 20.861933 -157.139759 308 4492ft 132kts
19-Dec-15 12:42 20.881717 -157.171338 335 4494ft 124kts
19-Dec-15 12:43 20.911534 -157.189768 337 4481ft 125kts
19-Dec-15 12:44 20.941269 -157.208949 338 4476ft 125kts
19-Dec-15 12:45 20.971111 -157.227142 337 4473ft 126kts
19-Dec-15 12:46 21.001782 -157.245775 338 4228ft 129kts
19-Dec-15 12:47 21.029901 -157.263048 337 3610ft 104kts
19-Dec-15 12:48 21.051908 -157.274520 23 3270ft 71kts
19-Dec-15 12:49 21.059246 -157.260235 47 2894ft 58kts
19-Dec-15 12:50 21.070271 -157.234444 64 2777ft 121kts
19-Dec-15 12:51 21.085383 -157.201992 63 2775ft 128kts
19-Dec-15 12:52 21.103785 -157.170032 55 2773ft 130kts
19-Dec-15 12:53 21.125154 -157.138719 56 1932ft 125kts
19-Dec-15 12:54 21.144919 -157.112612 52 960ft 110kts
19-Dec-15 12:55 21.136246 -157.111501 212 772ft 98kts
19-Dec-15 12:56 21.145716 -157.108842 58 741ft 72kts
19-Dec-15 12:57 21.152372 -157.096193 48 459ft 14kts
19-Dec-15 12:58 21.155288 -157.092843 20 459ft 0kts
19-Dec-15 12:59 21.155288 -157.092843 20 459ft 0kts
19-Dec-15 13:00 21.155288 -157.092843 20 459ft 0kts
19-Dec-15 13:01 21.155288 -157.092843 20 459ft 0kts
19-Dec-15 13:02 21.155288 -157.092843 20 459ft 0kts
19-Dec-15 13:03 21.155288 -157.092843 20 459ft 0kts
19-Dec-15 13:04 21.153448 -157.095426 240 460ft 32kts
19-Dec-15 13:05 21.155144 -157.090221 66 696ft 81kts
19-Dec-15 13:06 21.173701 -157.081892 356 1250ft 125kts
19-Dec-15 13:07 21.206272 -157.084877 355 1863ft 124kts
19-Dec-15 13:08 21.235787 -157.072237 48 1969ft 126kts
19-Dec-15 13:09 21.261013 -157.048107 47 2060ft 135kts
19-Dec-15 13:10 21.286377 -157.052982 300 2829ft 132kts
19-Dec-15 13:11 21.297271 -157.088100 296 3706ft 120kts

Navigation Log

Ident Type
Flight plan parsing failed, navigation log unavailable